Sunday, January 21, 2018, 3:37 PM EST
Back to Local

KWAL, Wallops Flight Fac Airport

Location: Wallops Island, VA, United States Lat: 37.933
Local Time: 3:37 PM EST (20:37 GMT) Lon: -75.467
Time Zone: US/Eastern Elev: 39 ft

Show me the last for .
Show Decoded

2018-01-21 14:54 METAR KWAL 211954Z AUTO 18008KT 10SM CLR 14/01 A3019 RMK AO2 SLP221 T01390011 =
2018-01-21 13:54 METAR KWAL 211854Z AUTO 14004KT 10SM CLR 14/02 A3019 RMK AO2 SLP221 T01440022 =
2018-01-21 12:54 METAR KWAL 211754Z AUTO 13003KT 10SM FEW050 14/02 A3020 RMK AO2 SLP224 T01390022
                 10144 21006 58013 =
2018-01-21 11:54 METAR KWAL 211654Z AUTO 11003KT 10SM OVC048 13/02 A3022 RMK AO2 SLP230 T01330022
                 =
2018-01-21 10:54 METAR KWAL 211554Z AUTO 06006KT 10SM CLR 14/02 A3025 RMK AO2 SLP239 T01390017 =
2018-01-21 09:54 METAR KWAL 211454Z AUTO 00000KT 10SM CLR 13/03 A3024 RMK AO2 SLP236 T01280033
                 53016 =
2018-01-21 08:54 METAR KWAL 211354Z AUTO 10SM CLR 07/03 A3022 RMK AO2 SLP231 T00670028 =
2018-01-21 07:54 METAR KWAL 211254Z AUTO 21004KT 10SM CLR 01/00 A3020 RMK AO2 SLP223 T00110000 =
2018-01-21 06:54 METAR KWAL 211154Z AUTO 29004KT 10SM CLR 00/M02 A3019 RMK AO2 SLP220 T00001017
                 10044 21011 51017 =
2018-01-21 05:54 METAR KWAL 211054Z AUTO 00000KT 10SM CLR 00/M01 A3018 RMK AO2 SLP216 T00001011 =
2018-01-21 04:54 METAR KWAL 210954Z AUTO 00000KT 10SM CLR 01/M01 A3016 RMK AO2 SLP208 T00111006 =
2018-01-21 03:54 METAR KWAL 210854Z AUTO 30006KT 10SM CLR 02/00 A3014 RMK AO2 SLP203 T00220000
                 51010 =
2018-01-21 02:54 METAR KWAL 210754Z AUTO 30005KT 10SM CLR 04/01 A3014 RMK AO2 SLP202 T00390006 =
2018-01-21 01:54 METAR KWAL 210654Z AUTO 28005KT 10SM CLR 04/01 A3013 RMK AO2 SLP198 T00390006 =
2018-01-21 00:54 METAR KWAL 210554Z AUTO 00000KT 10SM CLR 03/00 A3011 RMK AO2 SLP192 T00280000
                 10072 20011 53000 =
2018-01-20 23:54 METAR KWAL 210454Z AUTO 26005KT 10SM CLR 07/01 A3010 RMK AO2 SLP190 T00670006
                 401391017 =
2018-01-20 22:54 METAR KWAL 210354Z AUTO 25003KT 10SM CLR 04/M01 A3011 RMK AO2 SLP192 T00391006 =
2018-01-20 21:54 METAR KWAL 210254Z AUTO 00000KT 10SM CLR 01/M02 A3011 RMK AO2 SLP192 T00111022
                 51015 =
2018-01-20 20:54 METAR KWAL 210154Z AUTO 00000KT 10SM CLR 02/00 A3010 RMK AO2 SLP188 T00220000 =
2018-01-20 19:54 METAR KWAL 210054Z AUTO 00000KT 10SM CLR 03/M02 A3008 RMK AO2 SLP183 T00281017 =
2018-01-20 18:54 METAR KWAL 202354Z AUTO 00000KT 10SM CLR 03/M01 A3006 RMK AO2 SLP177 T00331006
                 10139 20033 53016 =
2018-01-20 17:54 METAR KWAL 202254Z AUTO 00000KT 10SM CLR 06/M01 A3005 RMK AO2 SLP172 T00611006 =
2018-01-20 16:54 METAR KWAL 202154Z AUTO 26003KT 10SM CLR 12/M04 A3003 RMK AO2 SLP166 T01221039 =
2018-01-20 15:54 METAR KWAL 202054Z AUTO 24007KT 10SM CLR 13/M04 A3002 RMK AO2 SLP161 T01331044
                 53003 =

Support USWX by starting your Amazon purchase here.